Airfield :
LOGIN :

Register | Disclaimer

   EN    FR    IT 

 










Legend :    VFR   Marginal VFR   IFR   Intensive IFR   Very Intensive IFR
Visi :
Ceiling :
>= 8 km
>= 3000ft
5 to 8 km
1000 to 3000 ft
1500m to 5 km
500 to 1000 ft
800 to 1500m
200 to 500 ft
< 800m
< 200 ft
Symbols :   Thunderstorms  Fog  Heavy snow  Heavy precipitations  Wind > 20 kt
SIGMETs :     Misc.  Thunderstorms  Icing  Turbulence  Mountain Waves  Volcanic Ashes







- Airport Elevation : 1568 ft


ETSB - Büchel AB

CURRENT METAR :
  • 260620Z 24012KT 9999 SCT012 BKN040 06/03 Q1016 BLU GRN TEMPO BLU

EXPIRED METARs :
  • 260520Z 24010KT 9999 FEW010 BKN045 05/03 Q1015 BLU GRN TEMPO BLU
  • 260420Z 24010KT 9999 FEW018 BKN035 05/02 Q1015 BLU GRN TEMPO BLU

TAF TAF ETSB
Valid from the 26 at 05:00 until the 26 at 14:00 UTC


260420Z 2605/2614 24010G20KT 6000 NSW BKN010 BKN020
TEMPO 2605/2614 27012G25KT 9999 NSW FEW025 BKN035 BY ETGL
No reported NOTAMs for that airfield.



MET'MAP, your aeronautical weather chart ! - Copyright ORBIFLY December 2007 - Disclaimer

ORBIFLY MET'MAP TEAM :

Programming & Development : Alexandra Zaïnal
Concept & Development : Baudouin d'Aumeries
Co-Development & Prog : Marc-Olivier Méhu
Technical & hardware support : Manuel Goepfert

Contact : metmap@orbifly.com




SOURCES & CREDITS :

   NOAA